sensor_id;sensor_type;location;lat;lon;timestamp;P1;durP1;ratioP1;P2;durP2;ratioP2
6163;SDS011;3114;48.362;10.994;2023-06-10T00:01:16;5.85;;;5.28;;
6163;SDS011;3114;48.362;10.994;2023-06-10T00:03:43;7.35;;;4.45;;
6163;SDS011;3114;48.362;10.994;2023-06-10T00:06:10;5.68;;;5.05;;
6163;SDS011;3114;48.362;10.994;2023-06-10T00:08:40;7.10;;;5.15;;
6163;SDS011;3114;48.362;10.994;2023-06-10T00:11:07;5.28;;;4.65;;
6163;SDS011;3114;48.362;10.994;2023-06-10T00:13:34;5.68;;;5.18;;
6163;SDS011;3114;48.362;10.994;2023-06-10T00:16:02;5.75;;;5.10;;
6163;SDS011;3114;48.362;10.994;2023-06-10T00:18:31;6.47;;;5.07;;
6163;SDS011;3114;48.362;10.994;2023-06-10T00:20:57;5.88;;;5.28;;
6163;SDS011;3114;48.362;10.994;2023-06-10T00:23:29;6.18;;;5.00;;
6163;SDS011;3114;48.362;10.994;2023-06-10T00:25:57;6.90;;;5.18;;
6163;SDS011;3114;48.362;10.994;2023-06-10T00:28:25;7.57;;;5.30;;
6163;SDS011;3114;48.362;10.994;2023-06-10T00:30:51;6.05;;;5.03;;
6163;SDS011;3114;48.362;10.994;2023-06-10T00:33:18;6.32;;;5.57;;
6163;SDS011;3114;48.362;10.994;2023-06-10T00:35:47;6.30;;;5.38;;
6163;SDS011;3114;48.362;10.994;2023-06-10T00:38:14;5.78;;;5.18;;
6163;SDS011;3114;48.362;10.994;2023-06-10T00:40:41;6.18;;;4.65;;
6163;SDS011;3114;48.362;10.994;2023-06-10T00:43:08;5.95;;;5.10;;
6163;SDS011;3114;48.362;10.994;2023-06-10T00:45:35;5.75;;;5.15;;
6163;SDS011;3114;48.362;10.994;2023-06-10T00:48:02;6.07;;;5.07;;
6163;SDS011;3114;48.362;10.994;2023-06-10T00:50:30;6.43;;;5.60;;
6163;SDS011;3114;48.362;10.994;2023-06-10T00:52:58;5.82;;;5.22;;
6163;SDS011;3114;48.362;10.994;2023-06-10T00:55:26;7.03;;;5.00;;
6163;SDS011;3114;48.362;10.994;2023-06-10T00:57:53;5.20;;;4.70;;
6163;SDS011;3114;48.362;10.994;2023-06-10T01:00:21;7.03;;;5.60;;
6163;SDS011;3114;48.362;10.994;2023-06-10T01:02:48;5.75;;;5.13;;
6163;SDS011;3114;48.362;10.994;2023-06-10T01:05:17;7.45;;;5.25;;
6163;SDS011;3114;48.362;10.994;2023-06-10T01:07:46;6.45;;;5.22;;
6163;SDS011;3114;48.362;10.994;2023-06-10T01:10:20;5.90;;;5.30;;
6163;SDS011;3114;48.362;10.994;2023-06-10T01:12:52;5.88;;;5.15;;
6163;SDS011;3114;48.362;10.994;2023-06-10T01:15:27;6.35;;;5.28;;
6163;SDS011;3114;48.362;10.994;2023-06-10T01:17:55;7.25;;;5.50;;
6163;SDS011;3114;48.362;10.994;2023-06-10T01:20:24;6.55;;;5.30;;
6163;SDS011;3114;48.362;10.994;2023-06-10T01:22:53;6.00;;;5.40;;
6163;SDS011;3114;48.362;10.994;2023-06-10T01:25:20;5.40;;;4.90;;
6163;SDS011;3114;48.362;10.994;2023-06-10T01:27:52;7.32;;;5.32;;
6163;SDS011;3114;48.362;10.994;2023-06-10T01:30:23;5.82;;;5.22;;
6163;SDS011;3114;48.362;10.994;2023-06-10T01:32:56;5.93;;;5.32;;
6163;SDS011;3114;48.362;10.994;2023-06-10T01:35:25;7.07;;;5.35;;
6163;SDS011;3114;48.362;10.994;2023-06-10T01:37:55;7.97;;;5.25;;
6163;SDS011;3114;48.362;10.994;2023-06-10T01:40:24;5.68;;;5.18;;
6163;SDS011;3114;48.362;10.994;2023-06-10T01:42:52;5.75;;;5.22;;
6163;SDS011;3114;48.362;10.994;2023-06-10T01:45:19;6.03;;;5.43;;
6163;SDS011;3114;48.362;10.994;2023-06-10T01:47:46;7.10;;;5.57;;
6163;SDS011;3114;48.362;10.994;2023-06-10T01:50:13;5.75;;;5.15;;
6163;SDS011;3114;48.362;10.994;2023-06-10T01:52:41;7.90;;;6.13;;
6163;SDS011;3114;48.362;10.994;2023-06-10T01:55:09;6.65;;;5.95;;
6163;SDS011;3114;48.362;10.994;2023-06-10T01:57:36;6.80;;;5.68;;
6163;SDS011;3114;48.362;10.994;2023-06-10T02:00:04;6.13;;;5.53;;
6163;SDS011;3114;48.362;10.994;2023-06-10T02:02:32;6.78;;;6.10;;
6163;SDS011;3114;48.362;10.994;2023-06-10T02:04:59;6.60;;;5.32;;
6163;SDS011;3114;48.362;10.994;2023-06-10T02:07:26;5.72;;;5.13;;
6163;SDS011;3114;48.362;10.994;2023-06-10T02:09:53;6.55;;;5.40;;
6163;SDS011;3114;48.362;10.994;2023-06-10T02:12:21;6.18;;;5.22;;
6163;SDS011;3114;48.362;10.994;2023-06-10T02:14:48;6.40;;;5.70;;
6163;SDS011;3114;48.362;10.994;2023-06-10T02:17:15;10.20;;;6.40;;
6163;SDS011;3114;48.362;10.994;2023-06-10T02:19:42;6.38;;;5.78;;
6163;SDS011;3114;48.362;10.994;2023-06-10T02:22:09;7.25;;;5.47;;
6163;SDS011;3114;48.362;10.994;2023-06-10T02:24:36;6.28;;;5.68;;
6163;SDS011;3114;48.362;10.994;2023-06-10T02:27:04;6.47;;;5.75;;
6163;SDS011;3114;48.362;10.994;2023-06-10T02:29:34;6.40;;;5.80;;
6163;SDS011;3114;48.362;10.994;2023-06-10T02:32:01;6.68;;;5.78;;
6163;SDS011;3114;48.362;10.994;2023-06-10T02:34:29;6.53;;;5.93;;
6163;SDS011;3114;48.362;10.994;2023-06-10T02:36:56;7.63;;;5.85;;
6163;SDS011;3114;48.362;10.994;2023-06-10T02:39:23;8.50;;;6.32;;
6163;SDS011;3114;48.362;10.994;2023-06-10T02:41:49;7.05;;;6.32;;
6163;SDS011;3114;48.362;10.994;2023-06-10T02:44:17;6.80;;;6.10;;
6163;SDS011;3114;48.362;10.994;2023-06-10T02:46:46;6.65;;;6.05;;
6163;SDS011;3114;48.362;10.994;2023-06-10T02:49:13;9.27;;;6.38;;
6163;SDS011;3114;48.362;10.994;2023-06-10T02:51:39;7.13;;;6.15;;
6163;SDS011;3114;48.362;10.994;2023-06-10T02:54:06;8.57;;;6.03;;
6163;SDS011;3114;48.362;10.994;2023-06-10T02:56:33;6.20;;;5.60;;
6163;SDS011;3114;48.362;10.994;2023-06-10T02:59:01;6.22;;;5.50;;
6163;SDS011;3114;48.362;10.994;2023-06-10T03:01:28;6.28;;;5.68;;
6163;SDS011;3114;48.362;10.994;2023-06-10T03:03:58;6.70;;;5.68;;
6163;SDS011;3114;48.362;10.994;2023-06-10T03:06:24;8.15;;;6.57;;
6163;SDS011;3114;48.362;10.994;2023-06-10T03:08:51;6.55;;;5.95;;
6163;SDS011;3114;48.362;10.994;2023-06-10T03:11:18;7.47;;;5.93;;
6163;SDS011;3114;48.362;10.994;2023-06-10T03:13:45;8.18;;;5.95;;
6163;SDS011;3114;48.362;10.994;2023-06-10T03:16:12;8.90;;;6.00;;
6163;SDS011;3114;48.362;10.994;2023-06-10T03:18:39;7.15;;;5.72;;
6163;SDS011;3114;48.362;10.994;2023-06-10T03:21:07;6.70;;;5.97;;
6163;SDS011;3114;48.362;10.994;2023-06-10T03:23:34;6.68;;;5.88;;
6163;SDS011;3114;48.362;10.994;2023-06-10T03:26:02;6.85;;;6.15;;
6163;SDS011;3114;48.362;10.994;2023-06-10T03:28:30;6.80;;;6.10;;
6163;SDS011;3114;48.362;10.994;2023-06-10T03:30:57;6.80;;;6.05;;
6163;SDS011;3114;48.362;10.994;2023-06-10T03:33:24;8.20;;;6.05;;
6163;SDS011;3114;48.362;10.994;2023-06-10T03:35:51;7.65;;;6.18;;
6163;SDS011;3114;48.362;10.994;2023-06-10T03:38:19;7.97;;;6.00;;
6163;SDS011;3114;48.362;10.994;2023-06-10T03:40:46;7.70;;;6.35;;
6163;SDS011;3114;48.362;10.994;2023-06-10T03:43:13;6.35;;;5.72;;
6163;SDS011;3114;48.362;10.994;2023-06-10T03:45:40;6.63;;;6.03;;
6163;SDS011;3114;48.362;10.994;2023-06-10T03:48:07;6.53;;;5.88;;
6163;SDS011;3114;48.362;10.994;2023-06-10T03:50:34;6.43;;;5.70;;
6163;SDS011;3114;48.362;10.994;2023-06-10T03:53:01;7.53;;;6.20;;
6163;SDS011;3114;48.362;10.994;2023-06-10T03:55:30;8.38;;;5.72;;
6163;SDS011;3114;48.362;10.994;2023-06-10T03:57:57;7.07;;;6.35;;
6163;SDS011;3114;48.362;10.994;2023-06-10T04:00:24;7.72;;;6.63;;
6163;SDS011;3114;48.362;10.994;2023-06-10T04:02:51;6.35;;;5.63;;
6163;SDS011;3114;48.362;10.994;2023-06-10T04:05:18;6.38;;;5.78;;
6163;SDS011;3114;48.362;10.994;2023-06-10T04:07:46;9.80;;;6.10;;
6163;SDS011;3114;48.362;10.994;2023-06-10T04:10:13;8.65;;;6.50;;
6163;SDS011;3114;48.362;10.994;2023-06-10T04:12:42;8.57;;;6.10;;
6163;SDS011;3114;48.362;10.994;2023-06-10T04:15:10;6.78;;;6.10;;
6163;SDS011;3114;48.362;10.994;2023-06-10T04:17:38;9.00;;;5.97;;
6163;SDS011;3114;48.362;10.994;2023-06-10T04:20:06;6.07;;;5.45;;
6163;SDS011;3114;48.362;10.994;2023-06-10T04:22:34;6.10;;;5.50;;
6163;SDS011;3114;48.362;10.994;2023-06-10T04:25:01;7.65;;;5.90;;
6163;SDS011;3114;48.362;10.994;2023-06-10T04:27:28;7.50;;;5.65;;
6163;SDS011;3114;48.362;10.994;2023-06-10T04:29:57;6.57;;;5.80;;
6163;SDS011;3114;48.362;10.994;2023-06-10T04:32:24;6.78;;;5.97;;
6163;SDS011;3114;48.362;10.994;2023-06-10T04:34:51;6.47;;;5.88;;
6163;SDS011;3114;48.362;10.994;2023-06-10T04:37:19;6.80;;;6.18;;
6163;SDS011;3114;48.362;10.994;2023-06-10T04:39:46;6.13;;;5.53;;
6163;SDS011;3114;48.362;10.994;2023-06-10T04:42:13;7.05;;;5.93;;
6163;SDS011;3114;48.362;10.994;2023-06-10T04:44:40;6.93;;;5.50;;
6163;SDS011;3114;48.362;10.994;2023-06-10T04:47:08;6.82;;;6.13;;
6163;SDS011;3114;48.362;10.994;2023-06-10T04:49:35;6.43;;;5.82;;
6163;SDS011;3114;48.362;10.994;2023-06-10T04:52:02;8.50;;;6.25;;
6163;SDS011;3114;48.362;10.994;2023-06-10T04:54:30;6.43;;;5.82;;
6163;SDS011;3114;48.362;10.994;2023-06-10T04:56:57;8.85;;;6.00;;
6163;SDS011;3114;48.362;10.994;2023-06-10T04:59:25;6.78;;;5.60;;
6163;SDS011;3114;48.362;10.994;2023-06-10T05:01:52;5.95;;;5.22;;
6163;SDS011;3114;48.362;10.994;2023-06-10T05:04:21;6.00;;;5.30;;
6163;SDS011;3114;48.362;10.994;2023-06-10T05:06:47;6.75;;;5.18;;
6163;SDS011;3114;48.362;10.994;2023-06-10T05:09:14;5.78;;;5.03;;
6163;SDS011;3114;48.362;10.994;2023-06-10T05:11:41;5.78;;;5.18;;
6163;SDS011;3114;48.362;10.994;2023-06-10T05:14:08;6.78;;;5.20;;
6163;SDS011;3114;48.362;10.994;2023-06-10T05:16:35;6.28;;;5.68;;
6163;SDS011;3114;48.362;10.994;2023-06-10T05:19:02;7.35;;;5.78;;
6163;SDS011;3114;48.362;10.994;2023-06-10T05:21:30;5.90;;;5.30;;
6163;SDS011;3114;48.362;10.994;2023-06-10T05:23:57;7.90;;;5.65;;
6163;SDS011;3114;48.362;10.994;2023-06-10T05:26:24;6.60;;;5.63;;
6163;SDS011;3114;48.362;10.994;2023-06-10T05:28:51;5.60;;;5.10;;
6163;SDS011;3114;48.362;10.994;2023-06-10T05:31:18;6.07;;;5.47;;
6163;SDS011;3114;48.362;10.994;2023-06-10T05:33:45;5.57;;;4.90;;
6163;SDS011;3114;48.362;10.994;2023-06-10T05:36:12;6.68;;;5.32;;
6163;SDS011;3114;48.362;10.994;2023-06-10T05:38:40;5.97;;;5.38;;
6163;SDS011;3114;48.362;10.994;2023-06-10T05:41:07;6.68;;;5.85;;
6163;SDS011;3114;48.362;10.994;2023-06-10T05:43:34;6.07;;;5.20;;
6163;SDS011;3114;48.362;10.994;2023-06-10T05:46:01;6.40;;;5.70;;
6163;SDS011;3114;48.362;10.994;2023-06-10T05:48:28;6.18;;;5.55;;
6163;SDS011;3114;48.362;10.994;2023-06-10T05:50:55;7.63;;;6.38;;
6163;SDS011;3114;48.362;10.994;2023-06-10T05:53:22;6.40;;;5.70;;
6163;SDS011;3114;48.362;10.994;2023-06-10T05:55:50;7.05;;;6.35;;
6163;SDS011;3114;48.362;10.994;2023-06-10T05:58:18;6.47;;;5.72;;
6163;SDS011;3114;48.362;10.994;2023-06-10T06:00:46;7.93;;;5.82;;
6163;SDS011;3114;48.362;10.994;2023-06-10T06:03:13;6.78;;;5.80;;
6163;SDS011;3114;48.362;10.994;2023-06-10T06:05:40;6.28;;;5.55;;
6163;SDS011;3114;48.362;10.994;2023-06-10T06:08:07;8.15;;;6.47;;
6163;SDS011;3114;48.362;10.994;2023-06-10T06:10:34;7.38;;;6.00;;
6163;SDS011;3114;48.362;10.994;2023-06-10T06:13:02;8.95;;;6.72;;
6163;SDS011;3114;48.362;10.994;2023-06-10T06:15:29;7.75;;;6.45;;
6163;SDS011;3114;48.362;10.994;2023-06-10T06:17:56;9.75;;;6.47;;
6163;SDS011;3114;48.362;10.994;2023-06-10T06:20:23;8.02;;;6.50;;
6163;SDS011;3114;48.362;10.994;2023-06-10T06:22:50;7.15;;;6.20;;
6163;SDS011;3114;48.362;10.994;2023-06-10T06:25:16;9.18;;;6.70;;
6163;SDS011;3114;48.362;10.994;2023-06-10T06:27:43;7.97;;;6.43;;
6163;SDS011;3114;48.362;10.994;2023-06-10T06:30:12;8.48;;;7.20;;
6163;SDS011;3114;48.362;10.994;2023-06-10T06:32:39;7.05;;;6.35;;
6163;SDS011;3114;48.362;10.994;2023-06-10T06:35:06;8.30;;;6.68;;
6163;SDS011;3114;48.362;10.994;2023-06-10T06:37:33;7.88;;;6.03;;
6163;SDS011;3114;48.362;10.994;2023-06-10T06:40:01;7.25;;;6.47;;
6163;SDS011;3114;48.362;10.994;2023-06-10T06:42:28;8.82;;;6.05;;
6163;SDS011;3114;48.362;10.994;2023-06-10T06:44:55;7.35;;;5.90;;
6163;SDS011;3114;48.362;10.994;2023-06-10T06:47:23;6.43;;;5.72;;
6163;SDS011;3114;48.362;10.994;2023-06-10T06:49:51;5.95;;;5.28;;
6163;SDS011;3114;48.362;10.994;2023-06-10T06:52:18;6.18;;;5.57;;
6163;SDS011;3114;48.362;10.994;2023-06-10T06:54:45;6.50;;;5.80;;
6163;SDS011;3114;48.362;10.994;2023-06-10T06:57:12;6.57;;;5.45;;
6163;SDS011;3114;48.362;10.994;2023-06-10T06:59:39;7.18;;;6.00;;
6163;SDS011;3114;48.362;10.994;2023-06-10T07:02:06;6.38;;;5.78;;
6163;SDS011;3114;48.362;10.994;2023-06-10T07:04:34;9.50;;;6.32;;
6163;SDS011;3114;48.362;10.994;2023-06-10T07:07:01;6.32;;;5.70;;
6163;SDS011;3114;48.362;10.994;2023-06-10T07:09:29;6.78;;;5.85;;
6163;SDS011;3114;48.362;10.994;2023-06-10T07:11:56;6.82;;;6.05;;
6163;SDS011;3114;48.362;10.994;2023-06-10T07:14:23;6.38;;;5.50;;
6163;SDS011;3114;48.362;10.994;2023-06-10T07:16:50;6.25;;;5.35;;
6163;SDS011;3114;48.362;10.994;2023-06-10T07:19:17;7.13;;;5.72;;
6163;SDS011;3114;48.362;10.994;2023-06-10T07:21:45;6.38;;;5.75;;
6163;SDS011;3114;48.362;10.994;2023-06-10T07:24:12;5.45;;;4.95;;
6163;SDS011;3114;48.362;10.994;2023-06-10T07:26:39;6.07;;;5.45;;
6163;SDS011;3114;48.362;10.994;2023-06-10T07:29:06;7.50;;;5.53;;
6163;SDS011;3114;48.362;10.994;2023-06-10T07:31:33;7.10;;;5.80;;
6163;SDS011;3114;48.362;10.994;2023-06-10T07:34:00;6.68;;;5.43;;
6163;SDS011;3114;48.362;10.994;2023-06-10T07:36:27;7.90;;;5.85;;
6163;SDS011;3114;48.362;10.994;2023-06-10T07:38:55;6.43;;;5.75;;
6163;SDS011;3114;48.362;10.994;2023-06-10T07:41:22;5.95;;;5.35;;
6163;SDS011;3114;48.362;10.994;2023-06-10T07:43:50;5.90;;;5.03;;
6163;SDS011;3114;48.362;10.994;2023-06-10T07:46:19;6.63;;;4.97;;
6163;SDS011;3114;48.362;10.994;2023-06-10T07:48:47;6.40;;;5.28;;
6163;SDS011;3114;48.362;10.994;2023-06-10T07:51:14;7.18;;;5.32;;
6163;SDS011;3114;48.362;10.994;2023-06-10T07:53:42;6.90;;;5.97;;
6163;SDS011;3114;48.362;10.994;2023-06-10T07:56:10;7.18;;;5.80;;
6163;SDS011;3114;48.362;10.994;2023-06-10T07:58:37;7.18;;;4.80;;
6163;SDS011;3114;48.362;10.994;2023-06-10T08:01:04;5.22;;;4.72;;
6163;SDS011;3114;48.362;10.994;2023-06-10T08:03:32;7.07;;;4.93;;
6163;SDS011;3114;48.362;10.994;2023-06-10T08:05:59;6.97;;;4.85;;
6163;SDS011;3114;48.362;10.994;2023-06-10T08:08:26;7.63;;;4.97;;
6163;SDS011;3114;48.362;10.994;2023-06-10T08:10:53;6.00;;;4.80;;
6163;SDS011;3114;48.362;10.994;2023-06-10T08:13:21;5.05;;;4.55;;
6163;SDS011;3114;48.362;10.994;2023-06-10T08:15:48;5.75;;;4.85;;
6163;SDS011;3114;48.362;10.994;2023-06-10T08:18:15;5.03;;;4.35;;
6163;SDS011;3114;48.362;10.994;2023-06-10T08:20:42;4.97;;;4.57;;
6163;SDS011;3114;48.362;10.994;2023-06-10T08:23:09;4.82;;;4.10;;
6163;SDS011;3114;48.362;10.994;2023-06-10T08:25:36;5.15;;;4.50;;
6163;SDS011;3114;48.362;10.994;2023-06-10T08:28:03;5.43;;;4.53;;
6163;SDS011;3114;48.362;10.994;2023-06-10T08:30:31;5.32;;;4.70;;
6163;SDS011;3114;48.362;10.994;2023-06-10T08:32:58;4.88;;;4.45;;
6163;SDS011;3114;48.362;10.994;2023-06-10T08:35:26;5.15;;;4.32;;
6163;SDS011;3114;48.362;10.994;2023-06-10T08:37:52;5.32;;;4.28;;
6163;SDS011;3114;48.362;10.994;2023-06-10T08:40:19;4.68;;;4.05;;
6163;SDS011;3114;48.362;10.994;2023-06-10T08:42:48;6.10;;;3.97;;
6163;SDS011;3114;48.362;10.994;2023-06-10T08:45:19;4.30;;;3.70;;
6163;SDS011;3114;48.362;10.994;2023-06-10T08:47:50;3.83;;;3.38;;
6163;SDS011;3114;48.362;10.994;2023-06-10T08:50:21;4.57;;;3.58;;
6163;SDS011;3114;48.362;10.994;2023-06-10T08:52:50;4.50;;;4.07;;
6163;SDS011;3114;48.362;10.994;2023-06-10T08:55:21;4.30;;;3.90;;
6163;SDS011;3114;48.362;10.994;2023-06-10T08:57:53;4.43;;;3.90;;
6163;SDS011;3114;48.362;10.994;2023-06-10T09:00:20;5.55;;;3.72;;
6163;SDS011;3114;48.362;10.994;2023-06-10T09:02:48;4.10;;;3.70;;
6163;SDS011;3114;48.362;10.994;2023-06-10T09:05:17;5.70;;;4.65;;
6163;SDS011;3114;48.362;10.994;2023-06-10T09:07:46;7.28;;;4.75;;
6163;SDS011;3114;48.362;10.994;2023-06-10T09:10:14;4.13;;;3.72;;
6163;SDS011;3114;48.362;10.994;2023-06-10T09:12:41;3.67;;;3.30;;
6163;SDS011;3114;48.362;10.994;2023-06-10T09:15:08;4.22;;;3.50;;
6163;SDS011;3114;48.362;10.994;2023-06-10T09:17:37;3.50;;;3.03;;
6163;SDS011;3114;48.362;10.994;2023-06-10T09:20:07;3.42;;;3.13;;
6163;SDS011;3114;48.362;10.994;2023-06-10T09:22:35;3.63;;;3.33;;
6163;SDS011;3114;48.362;10.994;2023-06-10T09:25:02;4.03;;;3.28;;
6163;SDS011;3114;48.362;10.994;2023-06-10T09:27:30;5.32;;;3.83;;
6163;SDS011;3114;48.362;10.994;2023-06-10T09:29:58;3.65;;;3.35;;
6163;SDS011;3114;48.362;10.994;2023-06-10T09:32:25;4.90;;;3.80;;
6163;SDS011;3114;48.362;10.994;2023-06-10T09:34:53;5.68;;;3.60;;
6163;SDS011;3114;48.362;10.994;2023-06-10T09:37:21;3.20;;;3.00;;
6163;SDS011;3114;48.362;10.994;2023-06-10T09:40:00;4.00;;;3.60;;
6163;SDS011;3114;48.362;10.994;2023-06-10T09:42:30;3.50;;;3.20;;
6163;SDS011;3114;48.362;10.994;2023-06-10T09:44:59;4.53;;;3.45;;
6163;SDS011;3114;48.362;10.994;2023-06-10T09:47:26;4.20;;;3.50;;
6163;SDS011;3114;48.362;10.994;2023-06-10T09:49:53;3.42;;;3.13;;
6163;SDS011;3114;48.362;10.994;2023-06-10T09:52:24;3.30;;;3.00;;
6163;SDS011;3114;48.362;10.994;2023-06-10T09:54:52;3.58;;;3.28;;
6163;SDS011;3114;48.362;10.994;2023-06-10T09:57:19;4.75;;;3.40;;
6163;SDS011;3114;48.362;10.994;2023-06-10T09:59:47;3.88;;;3.58;;
6163;SDS011;3114;48.362;10.994;2023-06-10T10:02:19;4.28;;;3.55;;
6163;SDS011;3114;48.362;10.994;2023-06-10T10:04:46;3.80;;;3.40;;
6163;SDS011;3114;48.362;10.994;2023-06-10T10:07:13;3.58;;;3.28;;
6163;SDS011;3114;48.362;10.994;2023-06-10T10:09:42;3.50;;;3.20;;
6163;SDS011;3114;48.362;10.994;2023-06-10T10:12:09;5.53;;;3.50;;
6163;SDS011;3114;48.362;10.994;2023-06-10T10:14:37;4.57;;;3.10;;
6163;SDS011;3114;48.362;10.994;2023-06-10T10:17:10;3.53;;;3.20;;
6163;SDS011;3114;48.362;10.994;2023-06-10T10:19:40;4.10;;;3.70;;
6163;SDS011;3114;48.362;10.994;2023-06-10T10:22:15;3.80;;;3.40;;
6163;SDS011;3114;48.362;10.994;2023-06-10T10:24:49;4.57;;;3.80;;
6163;SDS011;3114;48.362;10.994;2023-06-10T10:27:17;4.05;;;3.25;;
6163;SDS011;3114;48.362;10.994;2023-06-10T10:29:48;4.00;;;3.67;;
6163;SDS011;3114;48.362;10.994;2023-06-10T10:32:20;4.32;;;3.92;;
6163;SDS011;3114;48.362;10.994;2023-06-10T10:34:56;4.00;;;3.60;;
6163;SDS011;3114;48.362;10.994;2023-06-10T10:37:27;4.20;;;3.53;;
6163;SDS011;3114;48.362;10.994;2023-06-10T10:39:56;4.88;;;3.72;;
6163;SDS011;3114;48.362;10.994;2023-06-10T10:42:23;3.95;;;3.55;;
6163;SDS011;3114;48.362;10.994;2023-06-10T10:44:51;4.85;;;3.67;;
6163;SDS011;3114;48.362;10.994;2023-06-10T10:47:18;3.58;;;3.28;;
6163;SDS011;3114;48.362;10.994;2023-06-10T10:49:48;4.20;;;3.90;;
6163;SDS011;3114;48.362;10.994;2023-06-10T10:52:17;4.13;;;3.83;;
6163;SDS011;3114;48.362;10.994;2023-06-10T10:54:44;3.45;;;3.15;;
6163;SDS011;3114;48.362;10.994;2023-06-10T10:57:14;4.32;;;3.92;;
6163;SDS011;3114;48.362;10.994;2023-06-10T10:59:43;4.30;;;3.90;;
6163;SDS011;3114;48.362;10.994;2023-06-10T11:02:39;3.97;;;3.58;;
6163;SDS011;3114;48.362;10.994;2023-06-10T11:05:14;3.90;;;3.47;;
6163;SDS011;3114;48.362;10.994;2023-06-10T11:07:51;4.45;;;3.63;;
6163;SDS011;3114;48.362;10.994;2023-06-10T11:10:28;5.40;;;3.80;;
6163;SDS011;3114;48.362;10.994;2023-06-10T11:12:57;4.07;;;3.67;;
6163;SDS011;3114;48.362;10.994;2023-06-10T11:15:25;3.97;;;3.58;;
6163;SDS011;3114;48.362;10.994;2023-06-10T11:18:12;4.50;;;3.75;;
6163;SDS011;3114;48.362;10.994;2023-06-10T11:20:44;3.70;;;3.40;;
6163;SDS011;3114;48.362;10.994;2023-06-10T11:23:24;4.28;;;3.88;;
6163;SDS011;3114;48.362;10.994;2023-06-10T11:26:12;4.38;;;3.97;;
6163;SDS011;3114;48.362;10.994;2023-06-10T11:28:41;5.90;;;3.75;;
6163;SDS011;3114;48.362;10.994;2023-06-10T11:31:28;4.20;;;3.67;;
6163;SDS011;3114;48.362;10.994;2023-06-10T11:33:56;3.90;;;3.50;;
6163;SDS011;3114;48.362;10.994;2023-06-10T11:36:25;4.72;;;3.55;;
6163;SDS011;3114;48.362;10.994;2023-06-10T11:38:54;4.40;;;3.90;;
6163;SDS011;3114;48.362;10.994;2023-06-10T11:41:23;3.88;;;3.53;;
6163;SDS011;3114;48.362;10.994;2023-06-10T11:43:53;4.15;;;3.53;;
6163;SDS011;3114;48.362;10.994;2023-06-10T11:46:21;5.70;;;3.60;;
6163;SDS011;3114;48.362;10.994;2023-06-10T11:48:48;3.60;;;3.30;;
6163;SDS011;3114;48.362;10.994;2023-06-10T11:51:15;4.18;;;3.75;;
6163;SDS011;3114;48.362;10.994;2023-06-10T11:53:43;4.35;;;3.65;;
6163;SDS011;3114;48.362;10.994;2023-06-10T11:56:11;4.82;;;3.60;;
6163;SDS011;3114;48.362;10.994;2023-06-10T11:58:38;3.95;;;3.65;;
6163;SDS011;3114;48.362;10.994;2023-06-10T12:01:10;4.10;;;3.65;;
6163;SDS011;3114;48.362;10.994;2023-06-10T12:03:45;5.60;;;4.03;;
6163;SDS011;3114;48.362;10.994;2023-06-10T12:06:12;4.13;;;3.42;;
6163;SDS011;3114;48.362;10.994;2023-06-10T12:08:41;4.03;;;3.63;;
6163;SDS011;3114;48.362;10.994;2023-06-10T12:11:08;4.97;;;3.78;;
6163;SDS011;3114;48.362;10.994;2023-06-10T12:13:36;3.97;;;3.58;;
6163;SDS011;3114;48.362;10.994;2023-06-10T12:16:06;7.45;;;4.20;;
6163;SDS011;3114;48.362;10.994;2023-06-10T12:18:35;4.57;;;4.18;;
6163;SDS011;3114;48.362;10.994;2023-06-10T12:21:02;5.47;;;4.22;;
6163;SDS011;3114;48.362;10.994;2023-06-10T12:23:29;4.00;;;3.70;;
6163;SDS011;3114;48.362;10.994;2023-06-10T12:25:57;4.88;;;4.00;;
6163;SDS011;3114;48.362;10.994;2023-06-10T12:28:26;5.00;;;3.92;;
6163;SDS011;3114;48.362;10.994;2023-06-10T12:31:05;3.72;;;3.42;;
6163;SDS011;3114;48.362;10.994;2023-06-10T12:33:32;4.22;;;3.63;;
6163;SDS011;3114;48.362;10.994;2023-06-10T12:36:01;4.45;;;3.50;;
6163;SDS011;3114;48.362;10.994;2023-06-10T12:38:30;6.45;;;3.60;;
6163;SDS011;3114;48.362;10.994;2023-06-10T12:41:01;4.10;;;3.70;;
6163;SDS011;3114;48.362;10.994;2023-06-10T12:43:30;3.50;;;3.20;;
6163;SDS011;3114;48.362;10.994;2023-06-10T12:46:07;3.90;;;3.00;;
6163;SDS011;3114;48.362;10.994;2023-06-10T12:48:43;3.40;;;3.10;;
6163;SDS011;3114;48.362;10.994;2023-06-10T12:51:19;4.97;;;3.28;;
6163;SDS011;3114;48.362;10.994;2023-06-10T12:53:47;3.85;;;3.00;;
6163;SDS011;3114;48.362;10.994;2023-06-10T12:56:17;4.63;;;3.08;;
6163;SDS011;3114;48.362;10.994;2023-06-10T12:58:44;3.22;;;2.95;;
6163;SDS011;3114;48.362;10.994;2023-06-10T13:01:11;3.35;;;3.05;;
6163;SDS011;3114;48.362;10.994;2023-06-10T13:03:40;3.83;;;3.20;;
6163;SDS011;3114;48.362;10.994;2023-06-10T13:06:06;2.78;;;2.58;;
6163;SDS011;3114;48.362;10.994;2023-06-10T13:08:33;3.38;;;3.05;;
6163;SDS011;3114;48.362;10.994;2023-06-10T13:11:01;2.80;;;2.60;;
6163;SDS011;3114;48.362;10.994;2023-06-10T13:13:27;2.88;;;2.67;;
6163;SDS011;3114;48.362;10.994;2023-06-10T13:15:54;3.10;;;2.80;;
6163;SDS011;3114;48.362;10.994;2023-06-10T13:18:21;3.75;;;2.65;;
6163;SDS011;3114;48.362;10.994;2023-06-10T13:20:49;2.90;;;2.70;;
6163;SDS011;3114;48.362;10.994;2023-06-10T13:23:16;2.95;;;2.75;;
6163;SDS011;3114;48.362;10.994;2023-06-10T13:25:43;3.13;;;2.92;;
6163;SDS011;3114;48.362;10.994;2023-06-10T13:28:10;4.15;;;3.05;;
6163;SDS011;3114;48.362;10.994;2023-06-10T13:30:37;5.13;;;2.65;;
6163;SDS011;3114;48.362;10.994;2023-06-10T13:33:04;4.82;;;2.90;;
6163;SDS011;3114;48.362;10.994;2023-06-10T13:35:31;3.03;;;2.70;;
6163;SDS011;3114;48.362;10.994;2023-06-10T13:37:59;3.55;;;2.55;;
6163;SDS011;3114;48.362;10.994;2023-06-10T13:40:26;2.70;;;2.50;;
6163;SDS011;3114;48.362;10.994;2023-06-10T13:42:53;3.05;;;2.60;;
6163;SDS011;3114;48.362;10.994;2023-06-10T13:45:20;2.72;;;2.53;;
6163;SDS011;3114;48.362;10.994;2023-06-10T13:47:47;2.85;;;2.65;;
6163;SDS011;3114;48.362;10.994;2023-06-10T13:50:14;2.70;;;2.50;;
6163;SDS011;3114;48.362;10.994;2023-06-10T13:52:41;3.03;;;2.72;;
6163;SDS011;3114;48.362;10.994;2023-06-10T13:55:09;3.75;;;2.70;;
6163;SDS011;3114;48.362;10.994;2023-06-10T13:57:36;5.00;;;2.45;;
6163;SDS011;3114;48.362;10.994;2023-06-10T14:00:03;2.92;;;2.70;;
6163;SDS011;3114;48.362;10.994;2023-06-10T14:02:31;2.35;;;2.17;;
6163;SDS011;3114;48.362;10.994;2023-06-10T14:04:58;3.20;;;2.90;;
6163;SDS011;3114;48.362;10.994;2023-06-10T14:07:26;3.47;;;2.40;;
6163;SDS011;3114;48.362;10.994;2023-06-10T14:09:53;4.38;;;2.67;;
6163;SDS011;3114;48.362;10.994;2023-06-10T14:12:21;2.60;;;2.40;;
6163;SDS011;3114;48.362;10.994;2023-06-10T14:14:48;2.75;;;2.50;;
6163;SDS011;3114;48.362;10.994;2023-06-10T14:17:15;2.40;;;2.30;;
6163;SDS011;3114;48.362;10.994;2023-06-10T14:19:42;2.65;;;2.45;;
6163;SDS011;3114;48.362;10.994;2023-06-10T14:22:08;3.03;;;2.65;;
6163;SDS011;3114;48.362;10.994;2023-06-10T14:24:35;2.78;;;2.53;;
6163;SDS011;3114;48.362;10.994;2023-06-10T14:27:03;4.78;;;2.53;;
6163;SDS011;3114;48.362;10.994;2023-06-10T14:29:32;2.40;;;2.20;;
6163;SDS011;3114;48.362;10.994;2023-06-10T14:32:00;2.50;;;2.30;;
6163;SDS011;3114;48.362;10.994;2023-06-10T14:34:27;2.70;;;2.50;;
6163;SDS011;3114;48.362;10.994;2023-06-10T14:36:58;2.85;;;2.65;;
6163;SDS011;3114;48.362;10.994;2023-06-10T14:39:25;2.92;;;2.53;;
6163;SDS011;3114;48.362;10.994;2023-06-10T14:41:52;3.22;;;2.70;;
6163;SDS011;3114;48.362;10.994;2023-06-10T14:44:19;3.30;;;2.97;;
6163;SDS011;3114;48.362;10.994;2023-06-10T14:46:47;2.70;;;2.50;;
6163;SDS011;3114;48.362;10.994;2023-06-10T14:49:14;2.90;;;2.60;;
6163;SDS011;3114;48.362;10.994;2023-06-10T14:51:41;2.85;;;2.65;;
6163;SDS011;3114;48.362;10.994;2023-06-10T14:54:09;2.80;;;2.60;;
6163;SDS011;3114;48.362;10.994;2023-06-10T14:56:36;2.72;;;2.45;;
6163;SDS011;3114;48.362;10.994;2023-06-10T14:59:03;2.60;;;2.40;;
6163;SDS011;3114;48.362;10.994;2023-06-10T15:01:30;2.70;;;2.50;;
6163;SDS011;3114;48.362;10.994;2023-06-10T15:03:58;2.83;;;2.63;;
6163;SDS011;3114;48.362;10.994;2023-06-10T15:06:25;2.75;;;2.55;;